BGJN

Ilulissat Airport

Ilulissat, Greenland
METAR BGJN 191050Z VRB03KT 9999 SKC M01/M09 Q1014
Observed Flight Rules
Sep-19 @ 10:50 UTC (44 minutes ago) Visual Flight Rules
Wind Visibility Clouds
Variable at 3 knots 10,000+ meters
  • Clear skies
Temperatures Readings
Current -1°C / 30°F
Dewpoint -9°C / 16°F
Humidity 55%
Altimeter 29.94" Hg
Pressure 1014 hPa
Elevation 25
METAR BGJN 191050Z VRB03KT 9999 SKC M01/M09 Q1014
Observed Flight Rules
Sep-19 @ 10:50 UTC
(44 minutes ago)
VFR
Wind Visibility
Variable at 3 knots 10,000+ meters
Clouds
  • Clear skies
Temperature Dewpoint
-1°C / 30°F -9°C / 16°F
Humidity Altimeter Pressure
55% 29.94" Hg 1014 hPa